createdAt,value
2019-02-07T00:01:28.955Z,3.00
2019-02-07T00:04:02.564Z,2.55
2019-02-07T00:06:36.136Z,2.12
2019-02-07T00:09:12.316Z,3.10
2019-02-07T00:11:45.941Z,2.97
2019-02-07T00:14:19.658Z,2.10
2019-02-07T00:16:53.296Z,2.30
2019-02-07T00:19:26.736Z,2.50
2019-02-07T00:22:00.287Z,2.70
2019-02-07T00:24:42.602Z,2.23
2019-02-07T00:27:09.293Z,2.67
2019-02-07T00:29:42.662Z,2.80
2019-02-07T00:32:16.284Z,2.60
2019-02-07T00:34:50.290Z,2.77
2019-02-07T00:37:24.668Z,2.97
2019-02-07T00:39:58.283Z,2.40
2019-02-07T00:42:31.670Z,2.50
2019-02-07T00:45:05.707Z,2.30
2019-02-07T00:47:39.173Z,2.37
2019-02-07T00:50:14.665Z,2.33
2019-02-07T00:52:48.291Z,2.25
2019-02-07T00:55:22.229Z,2.47
2019-02-07T00:57:55.365Z,2.47
2019-02-07T01:00:29.288Z,2.80
2019-02-07T01:03:02.786Z,2.13
2019-02-07T01:05:36.287Z,2.63
2019-02-07T01:08:10.284Z,2.33
2019-02-07T01:10:43.864Z,2.40
2019-02-07T01:13:17.279Z,2.00
2019-02-07T01:15:50.956Z,2.23
2019-02-07T01:18:25.285Z,1.73
2019-02-07T01:20:58.297Z,1.80
2019-02-07T01:23:31.696Z,2.07
2019-02-07T01:26:06.374Z,1.70
2019-02-07T01:28:39.874Z,1.57
2019-02-07T01:31:13.331Z,2.43
2019-02-07T01:33:46.701Z,2.20
2019-02-07T01:36:20.339Z,3.80
2019-02-07T01:38:53.652Z,5.20
2019-02-07T01:41:27.362Z,5.50
2019-02-07T01:44:00.956Z,7.55
2019-02-07T01:51:38.701Z,7.50
2019-02-07T01:55:00.332Z,6.47
2019-02-07T01:57:34.114Z,6.45
2019-02-07T02:00:12.112Z,6.72
2019-02-07T02:05:32.678Z,6.22
2019-02-07T02:08:06.323Z,5.87
2019-02-07T02:10:39.684Z,6.37
2019-02-07T02:13:13.304Z,7.05
2019-02-07T02:15:46.946Z,6.37
2019-02-07T02:18:20.399Z,7.07
2019-02-07T02:20:53.781Z,8.27
2019-02-07T02:23:27.298Z,5.70
2019-02-07T02:26:00.654Z,5.30
2019-02-07T02:28:34.341Z,4.92
2019-02-07T02:31:07.789Z,5.10
2019-02-07T02:33:41.139Z,3.80
2019-02-07T02:36:14.661Z,3.40
2019-02-07T02:38:48.289Z,4.10
2019-02-07T02:41:21.699Z,3.27
2019-02-07T02:43:55.288Z,3.52
2019-02-07T02:46:28.728Z,3.20
2019-02-07T02:49:02.136Z,3.17
2019-02-07T02:51:35.722Z,3.20
2019-02-07T02:54:11.289Z,2.85
2019-02-07T02:56:44.725Z,2.70
2019-02-07T02:59:18.293Z,2.77
2019-02-07T03:02:00.567Z,3.15
2019-02-07T03:04:51.793Z,4.05
2019-02-07T03:07:56.947Z,4.53
2019-02-07T03:13:51.283Z,4.83
2019-02-07T03:16:42.948Z,4.37
2019-02-07T03:19:37.780Z,4.50
2019-02-07T03:22:29.277Z,4.67
2019-02-07T03:25:27.319Z,6.13
2019-02-07T03:28:28.600Z,5.03
2019-02-07T03:31:19.665Z,4.75
2019-02-07T03:34:07.291Z,3.83
2019-02-07T03:36:58.437Z,4.80
2019-02-07T03:40:05.802Z,4.30
2019-02-07T03:42:48.920Z,14.17
2019-02-07T03:45:39.788Z,6.30
2019-02-07T03:48:35.168Z,3.20
2019-02-07T03:54:16.603Z,3.03
2019-02-07T03:57:01.459Z,4.40
2019-02-07T03:59:57.647Z,4.43
2019-02-07T04:02:42.558Z,4.67
2019-02-07T04:05:34.280Z,4.57
2019-02-07T04:08:42.336Z,6.20
2019-02-07T04:11:33.549Z,6.77
2019-02-07T04:17:11.740Z,6.63
2019-02-07T04:20:05.286Z,9.40
2019-02-07T04:23:06.501Z,5.73
2019-02-07T04:26:01.491Z,6.33
2019-02-07T04:28:44.293Z,5.80
2019-02-07T04:31:38.675Z,6.07
2019-02-07T04:34:29.478Z,5.40
2019-02-07T04:37:20.330Z,6.33
2019-02-07T04:40:12.369Z,5.77
2019-02-07T04:43:11.275Z,6.40
2019-02-07T04:46:12.311Z,7.10
2019-02-07T04:48:56.359Z,6.70
2019-02-07T04:51:47.899Z,6.23
2019-02-07T04:56:49.574Z,6.20
2019-02-07T05:02:41.297Z,4.60
2019-02-07T05:05:33.333Z,4.37
2019-02-07T05:08:24.995Z,5.33
2019-02-07T05:11:21.295Z,6.42
2019-02-07T05:14:16.327Z,6.17
2019-02-07T05:17:19.955Z,6.17
2019-02-07T05:22:56.297Z,6.73
2019-02-07T05:25:48.415Z,6.20
2019-02-07T05:28:35.288Z,6.37
2019-02-07T05:31:33.283Z,5.87
2019-02-07T05:34:28.638Z,6.53
2019-02-07T05:37:26.713Z,5.83
2019-02-07T05:40:21.767Z,6.27
2019-02-07T05:43:17.734Z,5.87
2019-02-07T05:46:11.115Z,6.07
2019-02-07T05:49:13.665Z,5.43
2019-02-07T05:55:17.659Z,7.03
2019-02-07T05:58:09.648Z,6.45
2019-02-07T06:01:14.303Z,6.07
2019-02-07T06:04:06.324Z,5.73
2019-02-07T06:07:06.278Z,6.10
2019-02-07T06:09:57.502Z,6.40
2019-02-07T06:12:49.642Z,6.63
2019-02-07T06:15:50.627Z,6.00
2019-02-07T06:18:41.367Z,6.60
2019-02-07T06:21:24.423Z,6.70
2019-02-07T06:24:14.347Z,6.50
2019-02-07T06:26:55.730Z,6.37
2019-02-07T06:34:28.574Z,5.40
2019-02-07T06:37:30.301Z,5.43
2019-02-07T06:40:21.292Z,5.27
2019-02-07T06:43:02.334Z,5.20
2019-02-07T06:45:53.284Z,4.97
2019-02-07T06:48:35.533Z,5.80
2019-02-07T06:51:26.374Z,5.37
2019-02-07T06:54:18.890Z,5.80
2019-02-07T06:57:10.088Z,6.27
2019-02-07T06:59:51.752Z,4.70
2019-02-07T07:02:48.546Z,5.50
2019-02-07T07:05:43.937Z,4.57
2019-02-07T07:08:36.274Z,4.73
2019-02-07T07:11:28.276Z,4.90
2019-02-07T07:14:23.552Z,4.80
2019-02-07T07:17:24.906Z,4.87
2019-02-07T07:20:07.438Z,4.57
2019-02-07T07:23:06.693Z,5.53
2019-02-07T07:25:57.675Z,5.03
2019-02-07T07:29:02.501Z,5.33
2019-02-07T07:32:01.279Z,5.95
2019-02-07T07:34:52.712Z,4.70
2019-02-07T07:37:54.277Z,5.30
2019-02-07T07:40:45.281Z,6.07
2019-02-07T07:43:56.287Z,6.10
2019-02-07T07:46:47.606Z,6.07
2019-02-07T07:49:45.450Z,6.73
2019-02-07T07:52:36.310Z,5.97
2019-02-07T07:55:37.460Z,6.90
2019-02-07T07:58:25.866Z,7.78
2019-02-07T08:01:17.106Z,8.43
2019-02-07T08:04:09.280Z,7.25
2019-02-07T08:07:17.277Z,6.37
2019-02-07T08:10:24.932Z,6.53
2019-02-07T08:13:17.116Z,5.90
2019-02-07T08:16:21.274Z,6.60
2019-02-07T08:19:17.502Z,5.93
2019-02-07T08:22:05.918Z,6.07
2019-02-07T08:27:46.515Z,5.80
2019-02-07T08:30:38.785Z,5.37
2019-02-07T08:33:29.755Z,5.53
2019-02-07T08:36:24.557Z,6.12
2019-02-07T08:39:25.696Z,6.43
2019-02-07T08:42:13.772Z,5.45
2019-02-07T08:45:06.916Z,5.15
2019-02-07T08:47:58.899Z,5.70
2019-02-07T08:50:45.274Z,5.87
2019-02-07T08:53:40.883Z,5.63
2019-02-07T08:56:32.790Z,5.40
2019-02-07T08:59:34.327Z,3.77
2019-02-07T09:02:51.789Z,4.13
2019-02-07T09:05:37.684Z,3.62
2019-02-07T09:08:31.287Z,3.60
2019-02-07T09:11:32.282Z,8.45
2019-02-07T09:14:23.412Z,4.72
2019-02-07T09:17:15.889Z,3.12
2019-02-07T09:23:00.283Z,3.13
2019-02-07T09:25:51.271Z,3.07
2019-02-07T09:28:36.487Z,2.63
2019-02-07T09:31:34.313Z,2.83
2019-02-07T09:34:27.494Z,3.10
2019-02-07T09:37:19.698Z,3.70
2019-02-07T09:40:18.348Z,3.15
2019-02-07T09:43:08.743Z,3.50
2019-02-07T09:46:07.296Z,3.70
2019-02-07T09:48:59.320Z,4.10
2019-02-07T09:51:57.938Z,3.57
2019-02-07T09:54:53.272Z,3.90
2019-02-07T09:58:03.271Z,3.23
2019-02-07T10:01:00.581Z,3.80
2019-02-07T10:03:58.471Z,3.90
2019-02-07T10:06:50.937Z,3.70
2019-02-07T10:12:33.276Z,4.53
2019-02-07T10:15:18.652Z,4.40
2019-02-07T10:18:20.115Z,4.22
2019-02-07T10:21:14.732Z,4.07
2019-02-07T10:24:05.766Z,4.20
2019-02-07T10:26:54.449Z,4.23
2019-02-07T10:29:45.500Z,4.80
2019-02-07T10:32:36.466Z,4.00
2019-02-07T10:35:35.096Z,3.90
2019-02-07T10:38:21.711Z,3.60
2019-02-07T10:41:14.945Z,4.40
2019-02-07T10:44:08.752Z,3.40
2019-02-07T10:47:10.612Z,3.60
2019-02-07T10:50:08.656Z,3.80
2019-02-07T10:53:06.941Z,4.10
2019-02-07T10:57:19.542Z,4.20
2019-02-07T11:00:10.632Z,4.37
2019-02-07T11:03:00.280Z,4.50
2019-02-07T11:05:45.642Z,4.13
2019-02-07T11:08:49.647Z,4.37
2019-02-07T11:11:30.636Z,4.30
2019-02-07T11:14:28.678Z,4.00
2019-02-07T11:18:23.592Z,3.52
2019-02-07T11:21:31.625Z,3.52
2019-02-07T11:24:38.931Z,4.10
2019-02-07T11:27:33.485Z,4.33
2019-02-07T11:30:32.071Z,4.20
2019-02-07T11:33:30.256Z,3.97
2019-02-07T11:36:22.266Z,4.00
2019-02-07T11:39:13.935Z,4.20
2019-02-07T11:48:07.565Z,4.53
2019-02-07T11:50:57.301Z,4.57
2019-02-07T11:53:49.076Z,4.23
2019-02-07T11:56:53.285Z,4.13
2019-02-07T12:00:29.302Z,3.95
2019-02-07T12:03:29.874Z,4.30
2019-02-07T12:06:24.720Z,4.07
2019-02-07T12:09:06.765Z,8.05
2019-02-07T12:11:58.538Z,4.10
2019-02-07T12:14:59.952Z,4.20
2019-02-07T12:17:51.621Z,3.93
2019-02-07T12:20:39.865Z,3.93
2019-02-07T12:26:35.561Z,3.83
2019-02-07T12:29:33.935Z,4.25
2019-02-07T12:32:27.365Z,4.37
2019-02-07T12:35:18.305Z,3.60
2019-02-07T12:38:19.936Z,3.63
2019-02-07T12:44:15.497Z,3.93
2019-02-07T12:47:07.280Z,4.10
2019-02-07T12:50:00.939Z,4.00
2019-02-07T12:55:59.328Z,3.40
2019-02-07T12:58:50.283Z,3.67
2019-02-07T13:01:54.940Z,3.23
2019-02-07T13:07:36.747Z,8.58
2019-02-07T13:10:43.599Z,3.67
2019-02-07T13:13:24.610Z,3.55
2019-02-07T13:16:31.755Z,3.10
2019-02-07T13:19:40.655Z,3.13
2019-02-07T13:25:16.951Z,3.52
2019-02-07T13:31:04.997Z,3.25
2019-02-07T13:33:57.348Z,2.67
2019-02-07T13:36:44.395Z,3.30
2019-02-07T13:39:33.953Z,3.58
2019-02-07T13:42:33.878Z,3.08
2019-02-07T13:46:43.115Z,3.40
2019-02-07T13:49:52.249Z,3.77
2019-02-07T13:52:44.510Z,3.80
2019-02-07T13:55:29.939Z,3.73
2019-02-07T13:58:28.303Z,3.77
2019-02-07T14:01:30.370Z,3.17
2019-02-07T14:04:20.708Z,3.43
2019-02-07T14:07:28.100Z,3.47
2019-02-07T14:10:13.638Z,3.63
2019-02-07T14:13:11.341Z,3.37
2019-02-07T14:16:02.947Z,3.30
2019-02-07T14:21:52.741Z,3.00
2019-02-07T14:24:48.273Z,2.70
2019-02-07T14:27:30.571Z,3.77
2019-02-07T14:30:22.678Z,3.35
2019-02-07T14:33:05.334Z,4.13
2019-02-07T14:35:56.536Z,3.83
2019-02-07T14:38:50.067Z,3.97
2019-02-07T14:41:48.287Z,3.77
2019-02-07T14:44:46.523Z,4.20
2019-02-07T14:47:20.117Z,4.20
2019-02-07T14:49:53.669Z,4.33
2019-02-07T14:52:27.290Z,4.37
2019-02-07T14:55:02.273Z,4.67
2019-02-07T14:57:35.769Z,4.43
2019-02-07T15:00:14.934Z,3.83
2019-02-07T15:02:48.329Z,4.60
2019-02-07T15:08:01.344Z,4.65
2019-02-07T15:10:34.690Z,4.57
2019-02-07T15:13:08.286Z,4.80
2019-02-07T15:15:41.945Z,3.90
2019-02-07T15:18:15.275Z,4.43
2019-02-07T15:20:48.948Z,4.93
2019-02-07T15:23:22.279Z,4.67
2019-02-07T15:25:55.685Z,4.77
2019-02-07T15:28:29.127Z,4.53
2019-02-07T15:31:02.570Z,4.47
2019-02-07T15:33:36.278Z,5.13
2019-02-07T15:36:11.315Z,4.30
2019-02-07T15:38:44.955Z,4.87
2019-02-07T15:43:50.918Z,4.63
2019-02-07T15:46:24.906Z,4.50
2019-02-07T15:48:58.280Z,3.92
2019-02-07T15:51:31.874Z,4.87
2019-02-07T15:56:37.684Z,4.57
2019-02-07T15:59:19.807Z,5.13
2019-02-07T16:02:12.660Z,4.93
2019-02-07T16:04:47.593Z,5.03
2019-02-07T16:09:38.678Z,4.60
2019-02-07T16:12:12.284Z,4.30
2019-02-07T16:14:46.631Z,6.30
2019-02-07T16:17:20.269Z,5.10
2019-02-07T16:19:53.678Z,4.03
2019-02-07T16:22:27.768Z,5.07
2019-02-07T16:25:01.320Z,5.33
2019-02-07T16:27:34.784Z,6.80
2019-02-07T16:30:13.873Z,4.90
2019-02-07T16:35:20.699Z,5.40
2019-02-07T16:37:54.669Z,3.97
2019-02-07T16:40:28.296Z,5.47
2019-02-07T16:43:01.863Z,4.70
2019-02-07T16:45:35.291Z,4.33
2019-02-07T16:48:09.269Z,4.33
2019-02-07T16:50:42.673Z,4.97
2019-02-07T16:53:16.319Z,4.93
2019-02-07T16:55:49.733Z,5.60
2019-02-07T17:05:59.666Z,4.43
2019-02-07T17:08:33.287Z,5.03
2019-02-07T17:11:07.312Z,5.10
2019-02-07T17:13:40.880Z,5.47
2019-02-07T17:16:14.312Z,4.22
2019-02-07T17:18:47.682Z,5.20
2019-02-07T17:21:21.582Z,3.92
2019-02-07T17:23:55.286Z,4.00
2019-02-07T17:26:28.876Z,4.37
2019-02-07T17:29:02.317Z,4.70
2019-02-07T17:31:35.711Z,5.27
2019-02-07T17:34:09.510Z,5.10
2019-02-07T17:36:43.128Z,5.75
2019-02-07T17:39:16.666Z,5.37
2019-02-07T17:41:50.270Z,5.50
2019-02-07T17:44:24.272Z,5.30
2019-02-07T17:46:57.697Z,5.70
2019-02-07T17:49:31.270Z,5.33
2019-02-07T17:52:04.671Z,5.90
2019-02-07T17:54:38.067Z,5.40
2019-02-07T17:57:11.325Z,7.30
2019-02-07T17:59:44.740Z,6.47
2019-02-07T18:02:18.272Z,5.30
2019-02-07T18:04:51.725Z,6.27
2019-02-07T18:07:41.675Z,6.78
2019-02-07T18:10:15.664Z,7.40
2019-02-07T18:12:49.320Z,6.35
2019-02-07T18:15:22.670Z,6.50
2019-02-07T18:17:56.107Z,6.92
2019-02-07T18:20:29.825Z,6.67
2019-02-07T18:23:03.297Z,6.72
2019-02-07T18:25:36.754Z,6.60
2019-02-07T18:28:10.310Z,7.50
2019-02-07T18:30:44.101Z,6.87
2019-02-07T18:33:17.683Z,5.53
2019-02-07T18:35:52.711Z,7.33
2019-02-07T18:38:26.292Z,8.43
2019-02-07T18:40:59.763Z,7.10
2019-02-07T18:43:33.317Z,6.62
2019-02-07T18:46:07.259Z,7.93
2019-02-07T18:48:40.645Z,8.80
2019-02-07T18:51:14.078Z,6.80
2019-02-07T18:56:19.317Z,7.15
2019-02-07T18:58:52.735Z,7.23
2019-02-07T19:01:26.276Z,7.95
2019-02-07T19:03:59.709Z,6.93
2019-02-07T19:06:37.288Z,4.67
2019-02-07T19:09:12.493Z,7.97
2019-02-07T19:11:45.977Z,7.17
2019-02-07T19:16:51.272Z,7.62
2019-02-07T19:19:25.337Z,6.33
2019-02-07T19:21:58.638Z,6.57
2019-02-07T19:24:32.330Z,7.43
2019-02-07T19:29:01.623Z,7.00
2019-02-07T19:31:35.307Z,7.50
2019-02-07T19:34:08.726Z,7.63
2019-02-07T19:36:42.331Z,7.23
2019-02-07T19:39:15.740Z,7.30
2019-02-07T19:41:49.690Z,8.20
2019-02-07T19:44:22.942Z,7.65
2019-02-07T19:49:28.272Z,7.90
2019-02-07T19:52:08.098Z,7.80
2019-02-07T19:54:37.766Z,8.43
2019-02-07T19:57:11.111Z,8.08
2019-02-07T19:59:44.658Z,8.68
2019-02-07T20:02:17.935Z,8.05
2019-02-07T20:04:51.764Z,9.20
2019-02-07T20:07:25.160Z,9.33
2019-02-07T20:09:58.663Z,9.05
2019-02-07T20:12:32.063Z,9.05
2019-02-07T20:15:07.880Z,6.67
2019-02-07T20:20:14.320Z,8.53
2019-02-07T20:22:48.134Z,9.20
2019-02-07T20:25:22.273Z,8.33
2019-02-07T20:27:55.869Z,9.30
2019-02-07T20:33:09.274Z,9.30
2019-02-07T20:35:42.879Z,10.13
2019-02-07T20:38:16.278Z,7.03
2019-02-07T20:40:49.852Z,9.07
2019-02-07T20:43:23.281Z,10.87
2019-02-07T20:45:56.675Z,8.93
2019-02-07T20:48:30.272Z,7.67
2019-02-07T20:51:03.928Z,9.87
2019-02-07T20:58:41.699Z,10.05
2019-02-07T21:01:15.114Z,10.30
2019-02-07T21:06:29.133Z,8.80
2019-02-07T21:11:36.309Z,10.32
2019-02-07T21:14:09.945Z,9.67
2019-02-07T21:19:15.632Z,8.67
2019-02-07T21:21:49.157Z,10.33
2019-02-07T21:24:23.275Z,9.93
2019-02-07T21:26:56.758Z,8.37
2019-02-07T21:29:32.287Z,9.60
2019-02-07T21:32:05.942Z,9.70
2019-02-07T21:34:42.276Z,9.48
2019-02-07T21:37:15.698Z,6.40
2019-02-07T21:42:22.284Z,8.70
2019-02-07T21:44:55.665Z,7.50
2019-02-07T21:47:28.951Z,8.95
2019-02-07T21:50:02.139Z,8.40
2019-02-07T21:52:41.826Z,8.47
2019-02-07T21:55:11.691Z,8.60
2019-02-07T21:57:44.938Z,7.90
2019-02-07T22:05:29.253Z,8.23
2019-02-07T22:08:02.640Z,8.68
2019-02-07T22:10:35.949Z,8.43
2019-02-07T22:13:09.685Z,7.90
2019-02-07T22:15:42.947Z,8.08
2019-02-07T22:20:49.676Z,6.72
2019-02-07T22:23:23.327Z,7.17
2019-02-07T22:28:30.261Z,8.43
2019-02-07T22:31:03.712Z,7.57
2019-02-07T22:33:37.264Z,7.70
2019-02-07T22:36:10.784Z,7.13
2019-02-07T22:38:44.142Z,7.33
2019-02-07T22:43:49.311Z,7.53
2019-02-07T22:46:22.794Z,7.20
2019-02-07T22:48:57.462Z,8.05
2019-02-07T22:51:30.938Z,7.13
2019-02-07T22:54:07.264Z,7.57
2019-02-07T22:56:45.257Z,8.33
2019-02-07T22:59:16.202Z,8.17
2019-02-07T23:04:26.545Z,7.40
2019-02-07T23:07:00.284Z,7.28
2019-02-07T23:09:34.334Z,8.07
2019-02-07T23:12:08.635Z,7.10
2019-02-07T23:14:42.365Z,7.77
2019-02-07T23:17:18.614Z,7.77
2019-02-07T23:19:52.274Z,6.30
2019-02-07T23:22:25.758Z,6.73
2019-02-07T23:25:00.504Z,7.70
2019-02-07T23:27:34.432Z,7.25
2019-02-07T23:30:10.414Z,7.10
2019-02-07T23:32:44.287Z,8.08
2019-02-07T23:35:17.704Z,7.20
2019-02-07T23:37:50.946Z,6.67
2019-02-07T23:42:56.866Z,7.00
2019-02-07T23:45:30.669Z,5.75
2019-02-07T23:48:03.997Z,6.80
2019-02-07T23:50:37.274Z,6.10
2019-02-07T23:53:14.982Z,6.30
2019-02-07T23:55:45.902Z,7.03
2019-02-07T23:58:19.302Z,6.40
